Doddington, United Kingdom
Current Conditions -  °F | °C
As of 7:13 PM on Monday 20 Oct 2014 (Local Time) from EGUN Reporting Station
Overcast Overcast  
Wind Chill: 55°   Ceiling: 6000
Heat Index: 55°   Visibility: 6mi
Dew Point: 55°   Wind: 12mph
Humidity: 100%   Direction: 230°SW
Pressure: 29.89"   Gusts: NA
Location:  52.5°N, 0.06°E
Report Text: EGUN 201813Z AUTO 23010KT 9999 SCT030 SCT035 OVC060 13/13 A2989 RMK AO2 $
Loading
Personal Weather Stations






























Interactive Weather Map
Tropical Storm Tracking
New forecast layout! Learn more

10-Day Weather Forecast

Advertisements
Track Severe Weather on mobile